sensor_id;sensor_type;location;lat;lon;timestamp;P1;durP1;ratioP1;P2;durP2;ratioP2
77246;SDS011;66279;42.820;23.374;2023-04-15T00:00:13;19.30;;;8.48;;
77246;SDS011;66279;42.820;23.374;2023-04-15T00:02:40;26.73;;;8.82;;
77246;SDS011;66279;42.820;23.374;2023-04-15T00:05:06;27.17;;;8.90;;
77246;SDS011;66279;42.820;23.374;2023-04-15T00:07:32;30.85;;;10.45;;
77246;SDS011;66279;42.820;23.374;2023-04-15T00:09:58;30.52;;;9.80;;
77246;SDS011;66279;42.820;23.374;2023-04-15T00:12:24;36.90;;;10.25;;
77246;SDS011;66279;42.820;23.374;2023-04-15T00:14:50;34.92;;;10.43;;
77246;SDS011;66279;42.820;23.374;2023-04-15T00:17:15;27.98;;;8.48;;
77246;SDS011;66279;42.820;23.374;2023-04-15T00:19:41;25.10;;;9.25;;
77246;SDS011;66279;42.820;23.374;2023-04-15T00:22:08;23.23;;;8.43;;
77246;SDS011;66279;42.820;23.374;2023-04-15T00:24:34;23.80;;;8.15;;
77246;SDS011;66279;42.820;23.374;2023-04-15T00:26:59;25.75;;;8.02;;
77246;SDS011;66279;42.820;23.374;2023-04-15T00:29:25;15.27;;;5.35;;
77246;SDS011;66279;42.820;23.374;2023-04-15T00:31:50;19.90;;;5.55;;
77246;SDS011;66279;42.820;23.374;2023-04-15T00:34:16;22.17;;;4.78;;
77246;SDS011;66279;42.820;23.374;2023-04-15T00:36:42;12.85;;;3.40;;
77246;SDS011;66279;42.820;23.374;2023-04-15T00:39:08;24.30;;;8.63;;
77246;SDS011;66279;42.820;23.374;2023-04-15T00:41:33;28.58;;;9.13;;
77246;SDS011;66279;42.820;23.374;2023-04-15T00:44:00;12.25;;;5.38;;
77246;SDS011;66279;42.820;23.374;2023-04-15T00:46:27;20.70;;;6.25;;
77246;SDS011;66279;42.820;23.374;2023-04-15T00:48:55;17.33;;;6.97;;
77246;SDS011;66279;42.820;23.374;2023-04-15T00:51:20;18.08;;;5.82;;
77246;SDS011;66279;42.820;23.374;2023-04-15T00:53:46;15.30;;;6.18;;
77246;SDS011;66279;42.820;23.374;2023-04-15T00:56:11;23.63;;;7.85;;
77246;SDS011;66279;42.820;23.374;2023-04-15T00:58:38;17.33;;;6.35;;
77246;SDS011;66279;42.820;23.374;2023-04-15T01:01:04;12.60;;;4.88;;
77246;SDS011;66279;42.820;23.374;2023-04-15T01:03:29;15.57;;;5.10;;
77246;SDS011;66279;42.820;23.374;2023-04-15T01:05:55;20.13;;;4.53;;
77246;SDS011;66279;42.820;23.374;2023-04-15T01:08:27;58.38;;;14.25;;
77246;SDS011;66279;42.820;23.374;2023-04-15T01:10:54;27.65;;;8.73;;
77246;SDS011;66279;42.820;23.374;2023-04-15T01:13:22;46.47;;;11.75;;
77246;SDS011;66279;42.820;23.374;2023-04-15T01:15:48;26.65;;;9.15;;
77246;SDS011;66279;42.820;23.374;2023-04-15T01:18:14;19.25;;;7.13;;
77246;SDS011;66279;42.820;23.374;2023-04-15T01:20:40;54.05;;;12.77;;
77246;SDS011;66279;42.820;23.374;2023-04-15T01:23:05;27.63;;;9.85;;
77246;SDS011;66279;42.820;23.374;2023-04-15T01:25:32;28.52;;;9.23;;
77246;SDS011;66279;42.820;23.374;2023-04-15T01:27:58;30.90;;;9.20;;
77246;SDS011;66279;42.820;23.374;2023-04-15T01:30:24;27.45;;;8.75;;
77246;SDS011;66279;42.820;23.374;2023-04-15T01:32:51;32.55;;;9.55;;
77246;SDS011;66279;42.820;23.374;2023-04-15T01:35:17;39.33;;;10.50;;
77246;SDS011;66279;42.820;23.374;2023-04-15T01:37:43;44.50;;;13.48;;
77246;SDS011;66279;42.820;23.374;2023-04-15T01:40:09;38.63;;;10.80;;
77246;SDS011;66279;42.820;23.374;2023-04-15T01:42:35;57.45;;;17.75;;
77246;SDS011;66279;42.820;23.374;2023-04-15T01:45:01;36.30;;;10.82;;
77246;SDS011;66279;42.820;23.374;2023-04-15T01:47:27;33.03;;;8.65;;
77246;SDS011;66279;42.820;23.374;2023-04-15T01:49:53;24.42;;;8.20;;
77246;SDS011;66279;42.820;23.374;2023-04-15T01:52:18;34.42;;;8.77;;
77246;SDS011;66279;42.820;23.374;2023-04-15T01:54:44;22.00;;;8.30;;
77246;SDS011;66279;42.820;23.374;2023-04-15T01:57:10;26.58;;;8.38;;
77246;SDS011;66279;42.820;23.374;2023-04-15T01:59:36;30.30;;;8.05;;
77246;SDS011;66279;42.820;23.374;2023-04-15T02:02:02;21.92;;;8.27;;
77246;SDS011;66279;42.820;23.374;2023-04-15T02:04:28;39.03;;;10.88;;
77246;SDS011;66279;42.820;23.374;2023-04-15T02:06:54;30.65;;;10.45;;
77246;SDS011;66279;42.820;23.374;2023-04-15T02:09:19;21.50;;;7.15;;
77246;SDS011;66279;42.820;23.374;2023-04-15T02:11:45;25.90;;;6.60;;
77246;SDS011;66279;42.820;23.374;2023-04-15T02:14:10;17.15;;;6.55;;
77246;SDS011;66279;42.820;23.374;2023-04-15T02:16:36;26.00;;;6.85;;
77246;SDS011;66279;42.820;23.374;2023-04-15T02:19:01;24.02;;;6.57;;
77246;SDS011;66279;42.820;23.374;2023-04-15T02:21:28;26.23;;;7.05;;
77246;SDS011;66279;42.820;23.374;2023-04-15T02:23:54;20.30;;;7.28;;
77246;SDS011;66279;42.820;23.374;2023-04-15T02:26:20;18.75;;;6.75;;
77246;SDS011;66279;42.820;23.374;2023-04-15T02:28:46;26.60;;;6.63;;
77246;SDS011;66279;42.820;23.374;2023-04-15T02:31:13;14.77;;;6.13;;
77246;SDS011;66279;42.820;23.374;2023-04-15T02:33:38;15.25;;;5.65;;
77246;SDS011;66279;42.820;23.374;2023-04-15T02:36:04;19.15;;;5.20;;
77246;SDS011;66279;42.820;23.374;2023-04-15T02:38:31;17.30;;;6.38;;
77246;SDS011;66279;42.820;23.374;2023-04-15T02:40:57;10.35;;;4.53;;
77246;SDS011;66279;42.820;23.374;2023-04-15T02:43:22;7.55;;;4.03;;
77246;SDS011;66279;42.820;23.374;2023-04-15T02:45:48;19.17;;;4.97;;
77246;SDS011;66279;42.820;23.374;2023-04-15T02:48:14;18.10;;;6.53;;
77246;SDS011;66279;42.820;23.374;2023-04-15T02:50:42;16.83;;;6.57;;
77246;SDS011;66279;42.820;23.374;2023-04-15T02:53:07;11.25;;;4.38;;
77246;SDS011;66279;42.820;23.374;2023-04-15T02:55:33;13.35;;;4.85;;
77246;SDS011;66279;42.820;23.374;2023-04-15T02:57:58;19.05;;;4.97;;
77246;SDS011;66279;42.820;23.374;2023-04-15T03:00:25;18.48;;;5.55;;
77246;SDS011;66279;42.820;23.374;2023-04-15T03:02:56;18.17;;;6.15;;
77246;SDS011;66279;42.820;23.374;2023-04-15T03:05:31;19.60;;;6.78;;
77246;SDS011;66279;42.820;23.374;2023-04-15T03:07:56;15.98;;;4.68;;
77246;SDS011;66279;42.820;23.374;2023-04-15T03:10:22;18.05;;;5.72;;
77246;SDS011;66279;42.820;23.374;2023-04-15T03:12:47;14.90;;;5.07;;
77246;SDS011;66279;42.820;23.374;2023-04-15T03:15:13;14.02;;;5.25;;
77246;SDS011;66279;42.820;23.374;2023-04-15T03:17:39;12.60;;;4.28;;
77246;SDS011;66279;42.820;23.374;2023-04-15T03:20:05;16.08;;;5.68;;
77246;SDS011;66279;42.820;23.374;2023-04-15T03:22:31;13.65;;;4.78;;
77246;SDS011;66279;42.820;23.374;2023-04-15T03:24:57;24.05;;;6.53;;
77246;SDS011;66279;42.820;23.374;2023-04-15T03:27:23;26.17;;;8.98;;
77246;SDS011;66279;42.820;23.374;2023-04-15T03:29:49;24.60;;;7.60;;
77246;SDS011;66279;42.820;23.374;2023-04-15T03:32:15;30.38;;;7.95;;
77246;SDS011;66279;42.820;23.374;2023-04-15T03:34:42;13.45;;;5.85;;
77246;SDS011;66279;42.820;23.374;2023-04-15T03:37:07;18.10;;;5.75;;
77246;SDS011;66279;42.820;23.374;2023-04-15T03:39:33;17.30;;;6.53;;
77246;SDS011;66279;42.820;23.374;2023-04-15T03:41:59;29.17;;;8.90;;
77246;SDS011;66279;42.820;23.374;2023-04-15T03:44:26;35.80;;;8.02;;
77246;SDS011;66279;42.820;23.374;2023-04-15T03:46:51;13.23;;;6.38;;
77246;SDS011;66279;42.820;23.374;2023-04-15T03:49:17;12.60;;;4.68;;
77246;SDS011;66279;42.820;23.374;2023-04-15T03:51:44;11.10;;;4.60;;
77246;SDS011;66279;42.820;23.374;2023-04-15T03:54:09;11.70;;;4.25;;
77246;SDS011;66279;42.820;23.374;2023-04-15T03:56:36;14.65;;;4.07;;
77246;SDS011;66279;42.820;23.374;2023-04-15T03:59:01;14.18;;;5.13;;
77246;SDS011;66279;42.820;23.374;2023-04-15T04:01:27;17.23;;;5.53;;
77246;SDS011;66279;42.820;23.374;2023-04-15T04:03:52;20.35;;;6.60;;
77246;SDS011;66279;42.820;23.374;2023-04-15T04:06:18;22.13;;;6.38;;
77246;SDS011;66279;42.820;23.374;2023-04-15T04:08:44;19.77;;;6.85;;
77246;SDS011;66279;42.820;23.374;2023-04-15T04:11:09;31.55;;;8.80;;
77246;SDS011;66279;42.820;23.374;2023-04-15T04:13:35;44.05;;;12.75;;
77246;SDS011;66279;42.820;23.374;2023-04-15T04:16:01;25.50;;;8.20;;
77246;SDS011;66279;42.820;23.374;2023-04-15T04:18:26;26.80;;;7.68;;
77246;SDS011;66279;42.820;23.374;2023-04-15T04:20:52;46.80;;;14.07;;
77246;SDS011;66279;42.820;23.374;2023-04-15T04:23:18;45.95;;;13.82;;
77246;SDS011;66279;42.820;23.374;2023-04-15T04:25:43;38.70;;;11.75;;
77246;SDS011;66279;42.820;23.374;2023-04-15T04:28:09;34.65;;;11.07;;
77246;SDS011;66279;42.820;23.374;2023-04-15T04:30:35;35.25;;;11.27;;
77246;SDS011;66279;42.820;23.374;2023-04-15T04:33:01;31.80;;;9.95;;
77246;SDS011;66279;42.820;23.374;2023-04-15T04:35:26;24.15;;;10.25;;
77246;SDS011;66279;42.820;23.374;2023-04-15T04:37:52;25.88;;;8.93;;
77246;SDS011;66279;42.820;23.374;2023-04-15T04:40:17;16.42;;;6.07;;
77246;SDS011;66279;42.820;23.374;2023-04-15T04:42:43;19.27;;;6.88;;
77246;SDS011;66279;42.820;23.374;2023-04-15T04:45:09;23.08;;;8.45;;
77246;SDS011;66279;42.820;23.374;2023-04-15T04:47:34;20.33;;;6.65;;
77246;SDS011;66279;42.820;23.374;2023-04-15T04:50:00;23.67;;;8.68;;
77246;SDS011;66279;42.820;23.374;2023-04-15T04:52:26;28.23;;;9.65;;
77246;SDS011;66279;42.820;23.374;2023-04-15T04:54:51;120.35;;;37.70;;
77246;SDS011;66279;42.820;23.374;2023-04-15T04:57:17;53.08;;;19.92;;
77246;SDS011;66279;42.820;23.374;2023-04-15T04:59:42;66.18;;;22.85;;
77246;SDS011;66279;42.820;23.374;2023-04-15T05:02:08;74.78;;;23.75;;
77246;SDS011;66279;42.820;23.374;2023-04-15T05:04:33;66.03;;;24.63;;
77246;SDS011;66279;42.820;23.374;2023-04-15T05:07:01;65.22;;;25.02;;
77246;SDS011;66279;42.820;23.374;2023-04-15T05:09:26;74.53;;;27.38;;
77246;SDS011;66279;42.820;23.374;2023-04-15T05:11:52;48.75;;;18.05;;
77246;SDS011;66279;42.820;23.374;2023-04-15T05:14:18;45.65;;;17.50;;
77246;SDS011;66279;42.820;23.374;2023-04-15T05:16:44;35.75;;;13.13;;
77246;SDS011;66279;42.820;23.374;2023-04-15T05:19:09;42.53;;;17.50;;
77246;SDS011;66279;42.820;23.374;2023-04-15T05:21:35;47.13;;;17.77;;
77246;SDS011;66279;42.820;23.374;2023-04-15T05:24:01;54.35;;;18.52;;
77246;SDS011;66279;42.820;23.374;2023-04-15T05:26:26;52.72;;;19.50;;
77246;SDS011;66279;42.820;23.374;2023-04-15T05:28:52;37.78;;;14.48;;
77246;SDS011;66279;42.820;23.374;2023-04-15T05:31:18;30.33;;;13.52;;
77246;SDS011;66279;42.820;23.374;2023-04-15T05:33:43;32.17;;;12.85;;
77246;SDS011;66279;42.820;23.374;2023-04-15T05:36:09;33.35;;;12.32;;
77246;SDS011;66279;42.820;23.374;2023-04-15T05:38:34;35.58;;;13.18;;
77246;SDS011;66279;42.820;23.374;2023-04-15T05:41:00;38.58;;;14.27;;
77246;SDS011;66279;42.820;23.374;2023-04-15T05:43:25;42.88;;;18.75;;
77246;SDS011;66279;42.820;23.374;2023-04-15T05:45:51;31.38;;;13.23;;
77246;SDS011;66279;42.820;23.374;2023-04-15T05:48:16;29.35;;;12.10;;
77246;SDS011;66279;42.820;23.374;2023-04-15T05:50:42;48.00;;;23.70;;
77246;SDS011;66279;42.820;23.374;2023-04-15T05:53:08;55.88;;;26.25;;
77246;SDS011;66279;42.820;23.374;2023-04-15T05:55:33;31.15;;;14.73;;
77246;SDS011;66279;42.820;23.374;2023-04-15T05:57:59;75.45;;;22.33;;
77246;SDS011;66279;42.820;23.374;2023-04-15T06:00:24;46.55;;;17.33;;
77246;SDS011;66279;42.820;23.374;2023-04-15T06:02:50;25.63;;;11.10;;
77246;SDS011;66279;42.820;23.374;2023-04-15T06:05:15;20.70;;;7.55;;
77246;SDS011;66279;42.820;23.374;2023-04-15T06:07:42;37.20;;;12.82;;
77246;SDS011;66279;42.820;23.374;2023-04-15T06:10:08;31.73;;;12.98;;
77246;SDS011;66279;42.820;23.374;2023-04-15T06:12:34;21.10;;;10.85;;
77246;SDS011;66279;42.820;23.374;2023-04-15T06:15:00;29.88;;;12.20;;
77246;SDS011;66279;42.820;23.374;2023-04-15T06:17:26;27.67;;;8.43;;
77246;SDS011;66279;42.820;23.374;2023-04-15T06:19:52;29.17;;;11.75;;
77246;SDS011;66279;42.820;23.374;2023-04-15T06:22:23;18.38;;;7.90;;
77246;SDS011;66279;42.820;23.374;2023-04-15T06:24:49;32.58;;;15.23;;
77246;SDS011;66279;42.820;23.374;2023-04-15T06:27:15;42.53;;;16.67;;
77246;SDS011;66279;42.820;23.374;2023-04-15T06:29:41;36.28;;;14.25;;
77246;SDS011;66279;42.820;23.374;2023-04-15T06:32:07;31.08;;;12.55;;
77246;SDS011;66279;42.820;23.374;2023-04-15T06:34:32;28.20;;;9.55;;
77246;SDS011;66279;42.820;23.374;2023-04-15T06:36:58;28.08;;;11.70;;
77246;SDS011;66279;42.820;23.374;2023-04-15T06:39:24;29.55;;;12.98;;
77246;SDS011;66279;42.820;23.374;2023-04-15T06:41:51;24.60;;;10.07;;
77246;SDS011;66279;42.820;23.374;2023-04-15T06:44:17;27.75;;;11.32;;
77246;SDS011;66279;42.820;23.374;2023-04-15T06:46:42;74.80;;;22.27;;
77246;SDS011;66279;42.820;23.374;2023-04-15T06:49:08;33.05;;;12.50;;
77246;SDS011;66279;42.820;23.374;2023-04-15T06:51:35;39.55;;;22.70;;
77246;SDS011;66279;42.820;23.374;2023-04-15T06:54:01;33.38;;;16.33;;
77246;SDS011;66279;42.820;23.374;2023-04-15T06:56:29;42.72;;;14.63;;
77246;SDS011;66279;42.820;23.374;2023-04-15T06:58:58;21.98;;;9.30;;
77246;SDS011;66279;42.820;23.374;2023-04-15T07:01:23;27.92;;;10.70;;
77246;SDS011;66279;42.820;23.374;2023-04-15T07:03:49;30.05;;;10.20;;
77246;SDS011;66279;42.820;23.374;2023-04-15T07:06:15;52.67;;;17.75;;
77246;SDS011;66279;42.820;23.374;2023-04-15T07:08:41;67.35;;;25.42;;
77246;SDS011;66279;42.820;23.374;2023-04-15T07:11:06;51.70;;;17.83;;
77246;SDS011;66279;42.820;23.374;2023-04-15T07:13:32;35.65;;;13.32;;
77246;SDS011;66279;42.820;23.374;2023-04-15T07:15:58;42.17;;;14.32;;
77246;SDS011;66279;42.820;23.374;2023-04-15T07:18:23;27.52;;;11.82;;
77246;SDS011;66279;42.820;23.374;2023-04-15T07:20:49;34.47;;;12.75;;
77246;SDS011;66279;42.820;23.374;2023-04-15T07:23:15;36.30;;;12.98;;
77246;SDS011;66279;42.820;23.374;2023-04-15T07:25:41;49.42;;;14.95;;
77246;SDS011;66279;42.820;23.374;2023-04-15T07:28:06;33.17;;;13.60;;
77246;SDS011;66279;42.820;23.374;2023-04-15T07:30:32;46.58;;;17.80;;
77246;SDS011;66279;42.820;23.374;2023-04-15T07:32:58;24.30;;;9.25;;
77246;SDS011;66279;42.820;23.374;2023-04-15T07:35:24;20.27;;;8.45;;
77246;SDS011;66279;42.820;23.374;2023-04-15T07:37:50;20.45;;;8.27;;
77246;SDS011;66279;42.820;23.374;2023-04-15T07:40:16;14.70;;;6.00;;
77246;SDS011;66279;42.820;23.374;2023-04-15T07:42:42;22.27;;;7.28;;
77246;SDS011;66279;42.820;23.374;2023-04-15T07:45:08;21.00;;;6.55;;
77246;SDS011;66279;42.820;23.374;2023-04-15T07:47:34;16.00;;;6.18;;
77246;SDS011;66279;42.820;23.374;2023-04-15T07:49:59;15.13;;;5.32;;
77246;SDS011;66279;42.820;23.374;2023-04-15T07:52:26;16.52;;;5.45;;
77246;SDS011;66279;42.820;23.374;2023-04-15T07:54:52;16.00;;;5.78;;
77246;SDS011;66279;42.820;23.374;2023-04-15T07:57:17;13.65;;;4.57;;
77246;SDS011;66279;42.820;23.374;2023-04-15T07:59:43;19.30;;;5.32;;
77246;SDS011;66279;42.820;23.374;2023-04-15T08:02:09;13.60;;;4.65;;
77246;SDS011;66279;42.820;23.374;2023-04-15T08:04:35;37.55;;;9.85;;
77246;SDS011;66279;42.820;23.374;2023-04-15T08:07:01;12.23;;;3.95;;
77246;SDS011;66279;42.820;23.374;2023-04-15T08:09:27;22.20;;;4.28;;
77246;SDS011;66279;42.820;23.374;2023-04-15T08:11:53;18.08;;;4.03;;
77246;SDS011;66279;42.820;23.374;2023-04-15T08:14:19;33.35;;;10.00;;
77246;SDS011;66279;42.820;23.374;2023-04-15T08:16:44;10.23;;;2.70;;
77246;SDS011;66279;42.820;23.374;2023-04-15T08:19:10;15.60;;;4.28;;
77246;SDS011;66279;42.820;23.374;2023-04-15T08:21:36;7.75;;;3.08;;
77246;SDS011;66279;42.820;23.374;2023-04-15T08:24:01;15.55;;;4.43;;
77246;SDS011;66279;42.820;23.374;2023-04-15T08:26:27;10.27;;;3.20;;
77246;SDS011;66279;42.820;23.374;2023-04-15T08:28:53;14.52;;;4.00;;
77246;SDS011;66279;42.820;23.374;2023-04-15T08:31:18;9.50;;;3.13;;
77246;SDS011;66279;42.820;23.374;2023-04-15T08:33:45;14.40;;;3.55;;
77246;SDS011;66279;42.820;23.374;2023-04-15T08:36:10;9.40;;;3.70;;
77246;SDS011;66279;42.820;23.374;2023-04-15T08:38:37;13.77;;;4.25;;
77246;SDS011;66279;42.820;23.374;2023-04-15T08:41:06;10.35;;;2.58;;
77246;SDS011;66279;42.820;23.374;2023-04-15T08:43:37;12.27;;;5.22;;
77246;SDS011;66279;42.820;23.374;2023-04-15T08:46:11;11.63;;;7.60;;
77246;SDS011;66279;42.820;23.374;2023-04-15T08:48:37;12.60;;;4.20;;
77246;SDS011;66279;42.820;23.374;2023-04-15T08:51:05;10.55;;;3.13;;
77246;SDS011;66279;42.820;23.374;2023-04-15T08:53:31;10.48;;;3.83;;
77246;SDS011;66279;42.820;23.374;2023-04-15T08:55:58;17.60;;;4.07;;
77246;SDS011;66279;42.820;23.374;2023-04-15T08:58:28;11.68;;;6.25;;
77246;SDS011;66279;42.820;23.374;2023-04-15T09:00:55;17.10;;;4.43;;
77246;SDS011;66279;42.820;23.374;2023-04-15T09:03:21;14.18;;;4.00;;
77246;SDS011;66279;42.820;23.374;2023-04-15T09:05:47;11.27;;;4.13;;
77246;SDS011;66279;42.820;23.374;2023-04-15T09:08:14;10.52;;;3.65;;
77246;SDS011;66279;42.820;23.374;2023-04-15T09:10:40;13.48;;;3.47;;
77246;SDS011;66279;42.820;23.374;2023-04-15T09:13:05;9.32;;;2.90;;
77246;SDS011;66279;42.820;23.374;2023-04-15T09:15:32;14.18;;;4.68;;
77246;SDS011;66279;42.820;23.374;2023-04-15T09:17:57;12.73;;;4.50;;
77246;SDS011;66279;42.820;23.374;2023-04-15T09:20:23;9.40;;;3.58;;
77246;SDS011;66279;42.820;23.374;2023-04-15T09:22:49;14.73;;;4.68;;
77246;SDS011;66279;42.820;23.374;2023-04-15T09:27:56;15.48;;;4.07;;
77246;SDS011;66279;42.820;23.374;2023-04-15T09:30:28;11.02;;;2.88;;
77246;SDS011;66279;42.820;23.374;2023-04-15T09:32:55;9.05;;;3.15;;
77246;SDS011;66279;42.820;23.374;2023-04-15T09:35:23;5.10;;;2.55;;
77246;SDS011;66279;42.820;23.374;2023-04-15T09:37:49;9.00;;;2.78;;
77246;SDS011;66279;42.820;23.374;2023-04-15T09:40:34;9.70;;;3.67;;
77246;SDS011;66279;42.820;23.374;2023-04-15T09:43:02;19.38;;;4.22;;
77246;SDS011;66279;42.820;23.374;2023-04-15T09:45:29;15.05;;;4.43;;
77246;SDS011;66279;42.820;23.374;2023-04-15T09:47:58;8.98;;;2.88;;
77246;SDS011;66279;42.820;23.374;2023-04-15T09:50:41;7.78;;;2.30;;
77246;SDS011;66279;42.820;23.374;2023-04-15T09:53:10;9.27;;;2.00;;
77246;SDS011;66279;42.820;23.374;2023-04-15T09:55:36;8.05;;;1.73;;
77246;SDS011;66279;42.820;23.374;2023-04-15T09:58:07;11.98;;;2.17;;
77246;SDS011;66279;42.820;23.374;2023-04-15T10:00:33;5.65;;;2.25;;
77246;SDS011;66279;42.820;23.374;2023-04-15T10:02:59;15.13;;;2.72;;
77246;SDS011;66279;42.820;23.374;2023-04-15T10:05:25;12.57;;;2.83;;
77246;SDS011;66279;42.820;23.374;2023-04-15T10:07:51;10.10;;;3.70;;
77246;SDS011;66279;42.820;23.374;2023-04-15T10:10:17;14.88;;;2.45;;
77246;SDS011;66279;42.820;23.374;2023-04-15T10:12:42;16.38;;;2.80;;
77246;SDS011;66279;42.820;23.374;2023-04-15T10:15:12;6.15;;;1.90;;
77246;SDS011;66279;42.820;23.374;2023-04-15T10:17:40;8.32;;;2.10;;
77246;SDS011;66279;42.820;23.374;2023-04-15T10:22:34;9.10;;;2.55;;
77246;SDS011;66279;42.820;23.374;2023-04-15T10:25:01;8.13;;;2.78;;
77246;SDS011;66279;42.820;23.374;2023-04-15T10:27:28;8.15;;;2.35;;
77246;SDS011;66279;42.820;23.374;2023-04-15T10:29:54;11.32;;;3.35;;
77246;SDS011;66279;42.820;23.374;2023-04-15T10:32:21;9.90;;;2.72;;
77246;SDS011;66279;42.820;23.374;2023-04-15T10:34:49;17.65;;;3.75;;
77246;SDS011;66279;42.820;23.374;2023-04-15T10:37:31;5.47;;;1.90;;
77246;SDS011;66279;42.820;23.374;2023-04-15T10:40:22;4.15;;;1.98;;
77246;SDS011;66279;42.820;23.374;2023-04-15T10:42:56;4.32;;;1.08;;
77246;SDS011;66279;42.820;23.374;2023-04-15T10:45:24;11.73;;;1.88;;
77246;SDS011;66279;42.820;23.374;2023-04-15T10:47:55;4.15;;;1.42;;
77246;SDS011;66279;42.820;23.374;2023-04-15T10:50:24;8.63;;;1.70;;
77246;SDS011;66279;42.820;23.374;2023-04-15T10:52:51;4.50;;;1.20;;
77246;SDS011;66279;42.820;23.374;2023-04-15T10:55:20;7.82;;;1.92;;
77246;SDS011;66279;42.820;23.374;2023-04-15T10:57:50;5.28;;;1.35;;
77246;SDS011;66279;42.820;23.374;2023-04-15T11:00:21;5.18;;;1.60;;
77246;SDS011;66279;42.820;23.374;2023-04-15T11:02:53;6.38;;;1.60;;
77246;SDS011;66279;42.820;23.374;2023-04-15T11:08:10;10.80;;;3.88;;
77246;SDS011;66279;42.820;23.374;2023-04-15T11:13:03;7.70;;;1.48;;
77246;SDS011;66279;42.820;23.374;2023-04-15T11:15:38;34.75;;;7.43;;
77246;SDS011;66279;42.820;23.374;2023-04-15T11:18:12;6.65;;;1.95;;
77246;SDS011;66279;42.820;23.374;2023-04-15T11:20:48;9.68;;;1.80;;
77246;SDS011;66279;42.820;23.374;2023-04-15T11:23:16;6.75;;;2.50;;
77246;SDS011;66279;42.820;23.374;2023-04-15T11:25:43;9.20;;;2.00;;
77246;SDS011;66279;42.820;23.374;2023-04-15T11:28:09;4.97;;;1.42;;
77246;SDS011;66279;42.820;23.374;2023-04-15T11:30:36;4.25;;;1.50;;
77246;SDS011;66279;42.820;23.374;2023-04-15T11:33:03;6.13;;;1.50;;
77246;SDS011;66279;42.820;23.374;2023-04-15T11:37:56;7.00;;;1.42;;
77246;SDS011;66279;42.820;23.374;2023-04-15T11:40:23;5.55;;;1.65;;
77246;SDS011;66279;42.820;23.374;2023-04-15T11:45:33;16.80;;;4.75;;
77246;SDS011;66279;42.820;23.374;2023-04-15T11:50:35;8.38;;;2.10;;
77246;SDS011;66279;42.820;23.374;2023-04-15T11:53:03;7.82;;;2.35;;
77246;SDS011;66279;42.820;23.374;2023-04-15T11:55:30;7.32;;;3.00;;
77246;SDS011;66279;42.820;23.374;2023-04-15T11:58:05;7.80;;;2.08;;
77246;SDS011;66279;42.820;23.374;2023-04-15T12:00:34;48.53;;;14.15;;
77246;SDS011;66279;42.820;23.374;2023-04-15T12:03:17;32.25;;;14.10;;
77246;SDS011;66279;42.820;23.374;2023-04-15T12:11:19;3.42;;;1.45;;
77246;SDS011;66279;42.820;23.374;2023-04-15T12:13:49;10.52;;;2.20;;
77246;SDS011;66279;42.820;23.374;2023-04-15T12:16:16;6.07;;;1.52;;
77246;SDS011;66279;42.820;23.374;2023-04-15T12:18:54;10.65;;;2.33;;
77246;SDS011;66279;42.820;23.374;2023-04-15T12:21:23;9.23;;;2.13;;
77246;SDS011;66279;42.820;23.374;2023-04-15T12:23:50;5.88;;;1.50;;
77246;SDS011;66279;42.820;23.374;2023-04-15T12:26:27;6.45;;;1.60;;
77246;SDS011;66279;42.820;23.374;2023-04-15T12:29:05;4.28;;;1.60;;
77246;SDS011;66279;42.820;23.374;2023-04-15T12:31:35;11.30;;;1.83;;
77246;SDS011;66279;42.820;23.374;2023-04-15T12:34:01;7.88;;;2.47;;
77246;SDS011;66279;42.820;23.374;2023-04-15T12:36:28;6.78;;;2.22;;
77246;SDS011;66279;42.820;23.374;2023-04-15T12:39:00;7.63;;;1.52;;
77246;SDS011;66279;42.820;23.374;2023-04-15T12:41:27;7.93;;;2.15;;
77246;SDS011;66279;42.820;23.374;2023-04-15T12:43:52;5.30;;;1.55;;
77246;SDS011;66279;42.820;23.374;2023-04-15T12:46:18;13.27;;;3.88;;
77246;SDS011;66279;42.820;23.374;2023-04-15T12:48:44;6.40;;;1.60;;
77246;SDS011;66279;42.820;23.374;2023-04-15T12:51:10;7.65;;;3.05;;
77246;SDS011;66279;42.820;23.374;2023-04-15T12:53:36;7.97;;;2.10;;
77246;SDS011;66279;42.820;23.374;2023-04-15T12:56:01;3.08;;;1.33;;
77246;SDS011;66279;42.820;23.374;2023-04-15T12:58:27;6.30;;;1.40;;
77246;SDS011;66279;42.820;23.374;2023-04-15T13:00:52;6.10;;;1.73;;
77246;SDS011;66279;42.820;23.374;2023-04-15T13:03:18;6.50;;;1.50;;
77246;SDS011;66279;42.820;23.374;2023-04-15T13:05:44;5.50;;;1.40;;
77246;SDS011;66279;42.820;23.374;2023-04-15T13:08:09;9.30;;;2.90;;
77246;SDS011;66279;42.820;23.374;2023-04-15T13:10:35;9.20;;;3.10;;
77246;SDS011;66279;42.820;23.374;2023-04-15T13:13:00;11.27;;;6.70;;
77246;SDS011;66279;42.820;23.374;2023-04-15T13:15:27;15.13;;;6.35;;
77246;SDS011;66279;42.820;23.374;2023-04-15T13:17:53;6.22;;;1.70;;
77246;SDS011;66279;42.820;23.374;2023-04-15T13:20:19;3.53;;;1.55;;
77246;SDS011;66279;42.820;23.374;2023-04-15T13:22:45;5.57;;;1.48;;
77246;SDS011;66279;42.820;23.374;2023-04-15T13:25:10;5.65;;;2.00;;
77246;SDS011;66279;42.820;23.374;2023-04-15T13:27:36;6.78;;;2.78;;
77246;SDS011;66279;42.820;23.374;2023-04-15T13:30:02;4.63;;;1.52;;
77246;SDS011;66279;42.820;23.374;2023-04-15T13:32:29;2.35;;;1.00;;
77246;SDS011;66279;42.820;23.374;2023-04-15T13:34:55;6.15;;;1.63;;
77246;SDS011;66279;42.820;23.374;2023-04-15T13:37:24;7.13;;;1.52;;
77246;SDS011;66279;42.820;23.374;2023-04-15T13:39:53;7.85;;;1.40;;
77246;SDS011;66279;42.820;23.374;2023-04-15T13:42:20;7.57;;;2.10;;
77246;SDS011;66279;42.820;23.374;2023-04-15T13:44:46;4.38;;;1.25;;
77246;SDS011;66279;42.820;23.374;2023-04-15T13:47:11;5.43;;;1.20;;
77246;SDS011;66279;42.820;23.374;2023-04-15T13:49:39;4.65;;;1.10;;
77246;SDS011;66279;42.820;23.374;2023-04-15T13:52:04;7.95;;;1.77;;
77246;SDS011;66279;42.820;23.374;2023-04-15T13:54:30;5.82;;;2.55;;
77246;SDS011;66279;42.820;23.374;2023-04-15T13:56:55;4.70;;;1.13;;
77246;SDS011;66279;42.820;23.374;2023-04-15T13:59:22;6.05;;;1.65;;
77246;SDS011;66279;42.820;23.374;2023-04-15T14:01:47;9.43;;;1.50;;
77246;SDS011;66279;42.820;23.374;2023-04-15T14:04:13;4.88;;;1.42;;
77246;SDS011;66279;42.820;23.374;2023-04-15T14:06:39;5.18;;;1.35;;
77246;SDS011;66279;42.820;23.374;2023-04-15T14:09:04;3.40;;;1.10;;
77246;SDS011;66279;42.820;23.374;2023-04-15T14:11:30;5.35;;;1.30;;
77246;SDS011;66279;42.820;23.374;2023-04-15T14:13:55;4.72;;;1.15;;
77246;SDS011;66279;42.820;23.374;2023-04-15T14:16:21;8.50;;;1.50;;
77246;SDS011;66279;42.820;23.374;2023-04-15T14:18:47;4.25;;;1.17;;
77246;SDS011;66279;42.820;23.374;2023-04-15T14:21:12;3.42;;;1.17;;
77246;SDS011;66279;42.820;23.374;2023-04-15T14:23:38;11.60;;;4.63;;
77246;SDS011;66279;42.820;23.374;2023-04-15T14:26:03;6.63;;;1.35;;
77246;SDS011;66279;42.820;23.374;2023-04-15T14:28:29;2.97;;;0.93;;
77246;SDS011;66279;42.820;23.374;2023-04-15T14:30:56;6.45;;;1.65;;
77246;SDS011;66279;42.820;23.374;2023-04-15T14:33:21;4.90;;;1.30;;
77246;SDS011;66279;42.820;23.374;2023-04-15T14:35:48;6.93;;;1.38;;
77246;SDS011;66279;42.820;23.374;2023-04-15T14:38:14;1.92;;;0.95;;
77246;SDS011;66279;42.820;23.374;2023-04-15T14:40:40;11.60;;;1.98;;